createdAt,value
2023-03-21T00:00:31.754Z,27.88
2023-03-21T00:03:01.309Z,27.98
2023-03-21T00:05:29.186Z,23.83
2023-03-21T00:07:57.047Z,27.23
2023-03-21T00:10:39.082Z,26.70
2023-03-21T00:13:08.598Z,27.83
2023-03-21T00:16:03.520Z,27.27
2023-03-21T00:18:36.660Z,29.50
2023-03-21T00:21:37.622Z,24.33
2023-03-21T00:23:54.382Z,25.90
2023-03-21T00:26:23.478Z,22.95
2023-03-21T00:28:51.768Z,27.10
2023-03-21T00:31:21.980Z,22.40
2023-03-21T00:33:52.169Z,27.02
2023-03-21T00:36:19.932Z,28.45
2023-03-21T00:38:47.672Z,27.75
2023-03-21T00:41:26.343Z,26.10
2023-03-21T00:44:04.108Z,26.60
2023-03-21T00:46:43.713Z,23.85
2023-03-21T00:49:16.276Z,24.10
2023-03-21T00:51:44.833Z,26.23
2023-03-21T00:54:14.098Z,25.45
2023-03-21T00:56:42.161Z,25.42
2023-03-21T00:59:11.007Z,20.95
2023-03-21T01:01:38.971Z,22.17
2023-03-21T01:04:13.501Z,20.98
2023-03-21T01:06:44.300Z,27.35
2023-03-21T01:09:16.501Z,25.05
2023-03-21T01:11:45.282Z,27.40
2023-03-21T01:14:28.823Z,30.45
2023-03-21T01:16:56.644Z,31.27
2023-03-21T01:19:40.591Z,31.73
2023-03-21T01:22:17.367Z,31.48
2023-03-21T01:24:53.144Z,30.98
2023-03-21T01:27:24.681Z,28.75
2023-03-21T01:29:52.623Z,32.63
2023-03-21T01:32:20.809Z,31.25
2023-03-21T01:34:48.629Z,33.05
2023-03-21T01:37:19.090Z,29.05
2023-03-21T01:39:49.576Z,33.10
2023-03-21T01:42:17.448Z,32.42
2023-03-21T01:44:55.530Z,34.95
2023-03-21T01:47:23.929Z,37.08
2023-03-21T01:50:14.881Z,36.53
2023-03-21T01:53:17.143Z,33.63
2023-03-21T01:55:45.074Z,37.08
2023-03-21T01:58:23.005Z,36.75
2023-03-21T02:01:07.824Z,42.65
2023-03-21T02:03:51.348Z,40.50
2023-03-21T02:06:52.555Z,42.28
2023-03-21T02:09:43.063Z,41.53
2023-03-21T02:12:18.701Z,45.08
2023-03-21T02:14:49.473Z,45.80
2023-03-21T02:17:52.246Z,44.97
2023-03-21T02:21:08.456Z,41.63
2023-03-21T02:24:03.208Z,43.72
2023-03-21T02:27:04.412Z,44.72
2023-03-21T02:29:57.789Z,41.13
2023-03-21T02:32:38.515Z,48.15
2023-03-21T02:35:25.941Z,46.58
2023-03-21T02:38:00.917Z,41.80
2023-03-21T02:40:35.522Z,40.40
2023-03-21T02:43:22.104Z,39.45
2023-03-21T02:45:54.717Z,47.75
2023-03-21T02:48:35.400Z,38.72
2023-03-21T02:51:08.978Z,44.60
2023-03-21T02:53:42.193Z,43.20
2023-03-21T02:56:11.464Z,45.72
2023-03-21T02:58:45.612Z,47.97
2023-03-21T03:01:13.837Z,41.08
2023-03-21T03:03:48.623Z,49.30
2023-03-21T03:06:19.782Z,43.95
2023-03-21T03:11:34.297Z,42.17
2023-03-21T03:14:39.980Z,45.45
2023-03-21T03:17:21.113Z,38.65
2023-03-21T03:20:07.141Z,35.72
2023-03-21T03:22:47.944Z,37.47
2023-03-21T03:25:35.753Z,38.65
2023-03-21T03:28:11.095Z,37.83
2023-03-21T03:30:46.535Z,39.58
2023-03-21T03:33:23.520Z,40.38
2023-03-21T03:36:04.378Z,36.53
2023-03-21T03:38:36.657Z,41.70
2023-03-21T03:41:11.693Z,42.03
2023-03-21T03:43:50.841Z,39.28
2023-03-21T03:46:25.695Z,42.03
2023-03-21T03:48:57.851Z,43.95
2023-03-21T03:51:30.523Z,44.10
2023-03-21T03:54:13.942Z,47.90
2023-03-21T03:56:44.302Z,38.85
2023-03-21T03:59:12.149Z,45.45
2023-03-21T04:02:17.131Z,43.22
2023-03-21T04:04:45.107Z,38.97
2023-03-21T04:07:12.922Z,38.83
2023-03-21T04:09:44.874Z,44.80
2023-03-21T04:12:18.190Z,42.10
2023-03-21T04:15:10.662Z,43.40
2023-03-21T04:17:42.702Z,42.03
2023-03-21T04:20:16.709Z,46.75
2023-03-21T04:22:52.198Z,43.10
2023-03-21T04:25:32.557Z,44.83
2023-03-21T04:28:03.784Z,42.40
2023-03-21T04:31:02.287Z,38.08
2023-03-21T04:33:38.409Z,42.63
2023-03-21T04:36:09.365Z,42.38
2023-03-21T04:38:39.089Z,42.58
2023-03-21T04:41:07.631Z,40.20
2023-03-21T04:43:37.350Z,39.92
2023-03-21T04:46:06.346Z,42.05
2023-03-21T04:48:34.310Z,43.75
2023-03-21T04:51:02.255Z,41.42
2023-03-21T04:53:30.051Z,45.70
2023-03-21T04:55:58.567Z,41.03
2023-03-21T04:58:26.655Z,44.42
2023-03-21T05:00:57.356Z,41.33
2023-03-21T05:03:25.473Z,40.30
2023-03-21T05:05:53.400Z,43.13
2023-03-21T05:08:21.225Z,38.55
2023-03-21T05:10:49.060Z,35.92
2023-03-21T05:13:16.920Z,31.88
2023-03-21T05:15:44.818Z,32.25
2023-03-21T05:18:14.116Z,36.60
2023-03-21T05:20:59.341Z,32.13
2023-03-21T05:23:31.770Z,33.83
2023-03-21T05:25:59.865Z,33.20
2023-03-21T05:28:40.243Z,33.85
2023-03-21T05:31:09.242Z,32.83
2023-03-21T05:33:38.670Z,34.25
2023-03-21T05:36:07.177Z,31.90
2023-03-21T05:38:35.031Z,31.95
2023-03-21T05:41:03.029Z,30.73
2023-03-21T05:43:32.401Z,33.70
2023-03-21T05:46:00.261Z,30.38
2023-03-21T05:48:30.469Z,27.55
2023-03-21T05:51:16.755Z,28.05
2023-03-21T05:53:44.568Z,26.08
2023-03-21T05:56:13.861Z,27.17
2023-03-21T05:58:47.673Z,24.00
2023-03-21T06:01:15.848Z,24.73
2023-03-21T06:03:50.565Z,25.45
2023-03-21T06:06:23.959Z,27.42
2023-03-21T06:08:56.864Z,26.65
2023-03-21T06:11:27.771Z,27.58
2023-03-21T06:14:14.036Z,28.15
2023-03-21T06:16:43.118Z,30.38
2023-03-21T06:19:11.192Z,26.38
2023-03-21T06:21:52.906Z,25.60
2023-03-21T06:24:20.827Z,27.55
2023-03-21T06:26:49.167Z,24.42
2023-03-21T06:29:17.072Z,26.60
2023-03-21T06:31:49.374Z,25.13
2023-03-21T06:34:17.884Z,28.10
2023-03-21T06:36:46.684Z,24.45
2023-03-21T06:39:17.681Z,27.35
2023-03-21T06:41:46.522Z,27.48
2023-03-21T06:44:14.426Z,22.40
2023-03-21T06:46:50.531Z,21.75
2023-03-21T06:49:20.948Z,21.70
2023-03-21T06:51:49.138Z,22.52
2023-03-21T06:56:56.891Z,22.38
2023-03-21T06:59:29.128Z,24.20
2023-03-21T07:02:02.544Z,23.45
2023-03-21T07:04:31.661Z,25.05
2023-03-21T07:06:59.655Z,28.27
2023-03-21T07:09:29.996Z,22.40
2023-03-21T07:12:03.314Z,26.15
2023-03-21T07:14:43.794Z,23.13
2023-03-21T07:17:11.709Z,22.48
2023-03-21T07:19:39.521Z,26.45
2023-03-21T07:22:07.327Z,21.23
2023-03-21T07:24:36.470Z,22.33
2023-03-21T07:27:04.307Z,26.38
2023-03-21T07:29:32.290Z,24.80
2023-03-21T07:32:00.147Z,22.58
2023-03-21T07:34:33.006Z,22.75
2023-03-21T07:37:04.028Z,18.98
2023-03-21T07:39:33.055Z,24.10
2023-03-21T07:42:02.797Z,21.70
2023-03-21T07:44:37.086Z,23.10
2023-03-21T07:47:05.077Z,22.52
2023-03-21T07:49:33.793Z,22.02
2023-03-21T07:52:04.299Z,21.15
2023-03-21T07:57:01.813Z,24.50
2023-03-21T07:59:29.564Z,20.90
2023-03-21T08:01:57.368Z,21.83
2023-03-21T08:04:26.041Z,21.75
2023-03-21T08:06:53.866Z,20.38
2023-03-21T08:09:22.057Z,21.02
2023-03-21T08:11:49.855Z,19.17
2023-03-21T08:14:19.014Z,26.55
2023-03-21T08:16:46.840Z,19.17
2023-03-21T08:19:14.696Z,23.70
2023-03-21T08:21:42.589Z,22.42
2023-03-21T08:24:10.574Z,21.48
2023-03-21T08:26:38.679Z,19.33
2023-03-21T08:29:06.817Z,20.65
2023-03-21T08:31:36.257Z,20.48
2023-03-21T08:34:04.061Z,20.65
2023-03-21T08:36:32.228Z,24.60
2023-03-21T08:39:05.475Z,17.92
2023-03-21T08:41:33.401Z,21.40
2023-03-21T08:44:01.244Z,16.25
2023-03-21T08:46:29.053Z,20.13
2023-03-21T08:48:58.243Z,21.27
2023-03-21T08:51:26.024Z,22.08
2023-03-21T08:53:53.813Z,19.20
2023-03-21T08:56:21.608Z,18.73
2023-03-21T08:58:49.667Z,17.75
2023-03-21T09:01:17.510Z,17.30
2023-03-21T09:03:45.262Z,18.02
2023-03-21T09:06:14.594Z,15.00
2023-03-21T09:08:43.349Z,14.45
2023-03-21T09:11:11.743Z,18.55
2023-03-21T09:13:39.520Z,17.48
2023-03-21T09:16:08.038Z,15.43
2023-03-21T09:18:49.546Z,15.68
2023-03-21T09:21:20.314Z,16.80
2023-03-21T09:23:48.691Z,16.10
2023-03-21T09:26:17.145Z,14.90
2023-03-21T09:28:46.185Z,12.57
2023-03-21T09:31:16.649Z,14.55
2023-03-21T09:33:44.846Z,15.02
2023-03-21T09:36:14.204Z,14.65
2023-03-21T09:38:45.587Z,14.30
2023-03-21T09:41:35.260Z,17.67
2023-03-21T09:44:15.306Z,15.82
2023-03-21T09:46:46.774Z,16.67
2023-03-21T09:49:20.431Z,13.82
2023-03-21T09:51:52.827Z,16.70
2023-03-21T09:54:25.835Z,17.83
2023-03-21T09:56:56.368Z,19.10
2023-03-21T09:59:36.516Z,14.98
2023-03-21T10:02:06.213Z,16.75
2023-03-21T10:04:34.935Z,13.85
2023-03-21T10:07:04.487Z,15.80
2023-03-21T10:09:34.773Z,14.88
2023-03-21T10:12:07.398Z,18.73
2023-03-21T10:14:39.245Z,17.42
2023-03-21T10:17:20.058Z,15.80
2023-03-21T10:19:50.256Z,19.77
2023-03-21T10:22:18.045Z,17.88
2023-03-21T10:24:47.196Z,17.95
2023-03-21T10:27:15.387Z,18.33
2023-03-21T10:29:45.299Z,18.10
2023-03-21T10:32:16.747Z,17.13
2023-03-21T10:34:48.856Z,14.93
2023-03-21T10:37:17.748Z,17.00
2023-03-21T10:39:50.213Z,15.50
2023-03-21T10:42:23.774Z,18.42
2023-03-21T10:44:54.352Z,13.82
2023-03-21T10:47:26.010Z,14.80
2023-03-21T10:50:07.302Z,12.13
2023-03-21T10:52:38.391Z,14.73
2023-03-21T10:55:18.616Z,15.80
2023-03-21T10:57:47.363Z,18.33
2023-03-21T11:00:21.742Z,14.57
2023-03-21T11:02:51.941Z,15.95
2023-03-21T11:05:24.378Z,12.48
2023-03-21T11:08:04.146Z,14.57
2023-03-21T11:10:35.729Z,15.00
2023-03-21T11:13:08.344Z,17.08
2023-03-21T11:15:43.823Z,14.63
2023-03-21T11:18:16.567Z,15.40
2023-03-21T11:20:50.351Z,13.77
2023-03-21T11:23:20.624Z,13.23
2023-03-21T11:25:51.666Z,12.93
2023-03-21T11:28:22.381Z,16.30
2023-03-21T11:30:54.190Z,16.15
2023-03-21T11:33:23.923Z,11.82
2023-03-21T11:36:03.128Z,13.75
2023-03-21T11:38:33.926Z,12.45
2023-03-21T11:41:04.903Z,12.27
2023-03-21T11:43:36.108Z,14.75
2023-03-21T11:46:09.722Z,12.68
2023-03-21T11:48:41.269Z,13.10
2023-03-21T11:51:18.303Z,12.27
2023-03-21T11:56:26.531Z,12.45
2023-03-21T11:59:20.072Z,12.70
2023-03-21T12:02:01.280Z,15.23
2023-03-21T12:04:42.399Z,13.77
2023-03-21T12:07:26.775Z,14.13
2023-03-21T12:10:03.760Z,13.25
2023-03-21T12:15:18.820Z,10.65
2023-03-21T12:17:59.327Z,14.18
2023-03-21T12:20:48.295Z,14.70
2023-03-21T12:26:07.162Z,15.40
2023-03-21T12:28:48.110Z,19.00
2023-03-21T12:31:25.125Z,14.27
2023-03-21T12:36:48.002Z,12.43
2023-03-21T12:39:28.041Z,12.07
2023-03-21T12:42:07.801Z,14.18
2023-03-21T12:44:41.738Z,14.43
2023-03-21T12:47:14.596Z,12.45
2023-03-21T12:49:48.015Z,12.57
2023-03-21T12:52:19.830Z,11.18
2023-03-21T12:54:51.948Z,18.27
2023-03-21T12:57:23.829Z,12.93
2023-03-21T13:00:00.100Z,12.82
2023-03-21T13:02:32.640Z,14.82
2023-03-21T13:05:08.242Z,13.93
2023-03-21T13:07:40.869Z,15.50
2023-03-21T13:10:15.687Z,16.45
2023-03-21T13:12:52.105Z,16.20
2023-03-21T13:15:52.726Z,10.13
2023-03-21T13:18:31.572Z,13.82
2023-03-21T13:21:02.960Z,15.20
2023-03-21T13:23:37.175Z,11.68
2023-03-21T13:26:09.150Z,14.05
2023-03-21T13:28:39.841Z,14.95
2023-03-21T13:31:20.626Z,11.85
2023-03-21T13:33:50.672Z,18.02
2023-03-21T13:36:25.671Z,14.13
2023-03-21T13:38:56.242Z,13.55
2023-03-21T13:41:31.148Z,15.20
2023-03-21T13:44:10.324Z,14.15
2023-03-21T13:46:53.950Z,12.48
2023-03-21T13:49:28.943Z,14.75
2023-03-21T13:51:58.381Z,14.95
2023-03-21T13:54:31.549Z,14.10
2023-03-21T13:57:01.617Z,15.40
2023-03-21T13:59:48.935Z,12.65
2023-03-21T14:02:30.456Z,14.18
2023-03-21T14:05:06.845Z,17.30
2023-03-21T14:07:38.142Z,13.63
2023-03-21T14:10:10.633Z,13.10
2023-03-21T14:12:41.973Z,13.75
2023-03-21T14:15:18.836Z,13.27
2023-03-21T14:17:56.233Z,17.73
2023-03-21T14:20:26.797Z,16.73
2023-03-21T14:22:55.080Z,14.40
2023-03-21T14:25:29.231Z,17.40
2023-03-21T14:28:03.838Z,17.42
2023-03-21T14:30:35.458Z,17.40
2023-03-21T14:33:09.009Z,17.13
2023-03-21T14:35:37.383Z,16.63
2023-03-21T14:38:07.342Z,16.02
2023-03-21T14:40:35.617Z,13.80
2023-03-21T14:43:06.869Z,14.18
2023-03-21T14:45:37.273Z,16.83
2023-03-21T14:48:09.488Z,14.02
2023-03-21T14:50:41.913Z,13.32
2023-03-21T14:53:16.669Z,13.52
2023-03-21T14:55:47.178Z,12.57
2023-03-21T14:58:19.182Z,14.25
2023-03-21T15:00:50.776Z,16.65
2023-03-21T15:03:23.521Z,14.15
2023-03-21T15:05:51.470Z,14.75
2023-03-21T15:08:21.621Z,14.57
2023-03-21T15:11:06.160Z,15.95
2023-03-21T15:13:37.348Z,15.38
2023-03-21T15:16:06.310Z,14.82
2023-03-21T15:18:39.117Z,15.48
2023-03-21T15:21:11.456Z,14.45
2023-03-21T15:23:42.744Z,15.57
2023-03-21T15:26:16.677Z,15.80
2023-03-21T15:28:47.200Z,15.20
2023-03-21T15:31:18.468Z,13.35
2023-03-21T15:33:48.969Z,14.95
2023-03-21T15:36:20.874Z,16.13
2023-03-21T15:38:49.726Z,14.80
2023-03-21T15:41:28.258Z,15.15
2023-03-21T15:44:03.689Z,15.25
2023-03-21T15:46:41.402Z,17.13
2023-03-21T15:49:18.998Z,13.95
2023-03-21T15:51:51.960Z,16.20
2023-03-21T15:54:24.609Z,15.73
2023-03-21T15:56:55.921Z,14.13
2023-03-21T15:59:28.042Z,15.20
2023-03-21T16:01:55.957Z,16.75
2023-03-21T16:04:26.190Z,18.45
2023-03-21T16:06:59.037Z,13.95
2023-03-21T16:09:27.313Z,15.02
2023-03-21T16:11:56.820Z,16.02
2023-03-21T16:14:27.798Z,14.43
2023-03-21T16:19:27.658Z,16.45
2023-03-21T16:21:55.556Z,16.50
2023-03-21T16:24:23.369Z,14.20
2023-03-21T16:26:53.377Z,18.10
2023-03-21T16:29:21.214Z,15.57
2023-03-21T16:31:49.760Z,14.13
2023-03-21T16:34:17.573Z,16.60
2023-03-21T16:36:47.641Z,14.65
2023-03-21T16:39:19.720Z,15.27
2023-03-21T16:41:48.259Z,16.58
2023-03-21T16:44:16.446Z,18.17
2023-03-21T16:46:44.545Z,16.83
2023-03-21T16:49:20.336Z,15.88
2023-03-21T16:51:49.453Z,16.65
2023-03-21T16:54:17.329Z,16.08
2023-03-21T16:56:48.636Z,13.23
2023-03-21T16:59:16.720Z,12.65
2023-03-21T17:01:45.878Z,10.25
2023-03-21T17:04:13.841Z,12.65
2023-03-21T17:06:45.581Z,11.55
2023-03-21T17:09:16.307Z,13.85
2023-03-21T17:11:44.553Z,12.73
2023-03-21T17:14:14.244Z,12.30
2023-03-21T17:16:43.062Z,13.38
2023-03-21T17:19:15.509Z,13.73
2023-03-21T17:21:43.392Z,14.23
2023-03-21T17:24:11.194Z,13.32
2023-03-21T17:26:41.011Z,14.73
2023-03-21T17:29:08.843Z,14.27
2023-03-21T17:31:38.556Z,16.10
2023-03-21T17:34:06.532Z,16.00
2023-03-21T17:36:36.512Z,17.52
2023-03-21T17:39:06.842Z,16.05
2023-03-21T17:41:34.881Z,16.20
2023-03-21T17:44:04.017Z,15.32
2023-03-21T17:46:36.537Z,15.45
2023-03-21T17:49:05.705Z,16.38
2023-03-21T17:51:33.775Z,15.32
2023-03-21T17:54:01.662Z,14.40
2023-03-21T17:56:32.094Z,15.57
2023-03-21T17:59:01.122Z,13.27
2023-03-21T18:01:31.610Z,14.85
2023-03-21T18:04:02.097Z,13.88
2023-03-21T18:06:30.028Z,11.93
2023-03-21T18:08:59.626Z,12.77
2023-03-21T18:11:28.608Z,13.60
2023-03-21T18:14:06.814Z,13.05
2023-03-21T18:16:43.910Z,12.48
2023-03-21T18:19:12.776Z,13.25
2023-03-21T18:21:44.903Z,13.13
2023-03-21T18:24:13.116Z,12.95
2023-03-21T18:26:41.161Z,12.73
2023-03-21T18:30:13.229Z,14.68
2023-03-21T18:32:06.899Z,13.07
2023-03-21T18:34:37.078Z,12.82
2023-03-21T18:37:07.613Z,13.00
2023-03-21T18:39:36.229Z,14.57
2023-03-21T18:42:04.705Z,13.70
2023-03-21T18:44:37.291Z,15.68
2023-03-21T18:47:07.502Z,12.30
2023-03-21T18:52:23.539Z,14.32
2023-03-21T18:54:51.323Z,13.60
2023-03-21T18:57:37.368Z,13.15
2023-03-21T19:00:12.380Z,13.13
2023-03-21T19:02:46.775Z,13.77
2023-03-21T19:05:16.920Z,13.85
2023-03-21T19:07:44.883Z,13.65
2023-03-21T19:10:18.003Z,15.00
2023-03-21T19:12:46.555Z,13.50
2023-03-21T19:15:17.718Z,15.27
2023-03-21T19:18:26.480Z,15.52
2023-03-21T19:20:34.893Z,15.48
2023-03-21T19:23:03.218Z,15.25
2023-03-21T19:25:31.024Z,17.90
2023-03-21T19:27:58.813Z,16.02
2023-03-21T19:30:27.819Z,17.33
2023-03-21T19:32:57.104Z,15.63
2023-03-21T19:35:26.053Z,16.63
2023-03-21T19:37:53.905Z,15.98
2023-03-21T19:40:22.037Z,15.70
2023-03-21T19:42:49.895Z,15.45
2023-03-21T19:45:17.846Z,16.23
2023-03-21T19:47:46.237Z,18.13
2023-03-21T19:53:03.626Z,15.43
2023-03-21T19:55:31.451Z,16.27
2023-03-21T19:57:59.494Z,15.63
2023-03-21T20:00:27.309Z,17.98
2023-03-21T20:02:55.143Z,17.52
2023-03-21T20:05:25.620Z,16.77
2023-03-21T20:07:55.365Z,18.65
2023-03-21T20:10:23.731Z,14.98
2023-03-21T20:12:51.684Z,15.15
2023-03-21T20:15:21.867Z,16.52
2023-03-21T20:17:51.327Z,19.27
2023-03-21T20:20:19.911Z,16.02
2023-03-21T20:23:11.002Z,16.83
2023-03-21T20:25:43.106Z,17.05
2023-03-21T20:28:16.477Z,15.30
2023-03-21T20:30:53.296Z,18.88
2023-03-21T20:33:21.584Z,17.98
2023-03-21T20:38:40.750Z,18.50
2023-03-21T20:41:08.814Z,18.13
2023-03-21T20:44:28.247Z,18.77
2023-03-21T20:46:24.664Z,17.63
2023-03-21T20:48:52.511Z,17.45
2023-03-21T20:54:10.980Z,15.85
2023-03-21T20:56:38.900Z,15.57
2023-03-21T20:59:17.439Z,18.55
2023-03-21T21:01:48.582Z,15.52
2023-03-21T21:04:19.904Z,15.00
2023-03-21T21:06:48.157Z,14.10
2023-03-21T21:09:18.093Z,15.90
2023-03-21T21:14:35.501Z,13.65
2023-03-21T21:17:22.463Z,13.80
2023-03-21T21:19:51.458Z,13.43
2023-03-21T21:22:19.737Z,11.43
2023-03-21T21:24:48.925Z,12.73
2023-03-21T21:27:16.726Z,13.73
2023-03-21T21:29:46.657Z,14.05
2023-03-21T21:32:16.711Z,13.73
2023-03-21T21:34:44.653Z,13.15
2023-03-21T21:37:12.497Z,13.93
2023-03-21T21:39:42.009Z,12.40
2023-03-21T21:42:11.164Z,14.25
2023-03-21T21:44:44.025Z,15.75
2023-03-21T21:47:12.132Z,14.55
2023-03-21T21:49:40.070Z,16.75
2023-03-21T21:52:07.930Z,18.48
2023-03-21T21:54:36.181Z,15.35
2023-03-21T21:57:04.124Z,16.52
2023-03-21T21:59:33.901Z,16.17
2023-03-21T22:02:01.756Z,12.95
2023-03-21T22:04:30.126Z,13.27
2023-03-21T22:06:58.078Z,13.88
2023-03-21T22:09:26.014Z,13.57
2023-03-21T22:11:53.813Z,12.80
2023-03-21T22:14:21.608Z,11.85
2023-03-21T22:16:50.771Z,11.13
2023-03-21T22:19:19.076Z,9.02
2023-03-21T22:21:46.898Z,12.35
2023-03-21T22:24:14.739Z,11.20
2023-03-21T22:26:42.683Z,11.55
2023-03-21T22:29:10.581Z,11.27
2023-03-21T22:31:41.762Z,11.05
2023-03-21T22:34:10.988Z,10.38
2023-03-21T22:36:38.794Z,17.77
2023-03-21T22:39:06.614Z,10.15
2023-03-21T22:41:34.376Z,12.10
2023-03-21T22:44:02.175Z,10.50
2023-03-21T22:46:30.078Z,10.68
2023-03-21T22:48:57.900Z,10.02
2023-03-21T22:51:27.164Z,13.30
2023-03-21T22:53:54.949Z,12.02
2023-03-21T22:56:22.787Z,7.90
2023-03-21T22:58:50.598Z,8.48
2023-03-21T23:01:18.387Z,10.98
2023-03-21T23:03:46.227Z,10.85
2023-03-21T23:06:14.055Z,8.35
2023-03-21T23:08:43.203Z,8.90
2023-03-21T23:11:11.726Z,9.45
2023-03-21T23:13:41.236Z,7.90
2023-03-21T23:16:09.947Z,11.38
2023-03-21T23:18:38.540Z,8.25
2023-03-21T23:21:13.133Z,11.07
2023-03-21T23:23:43.792Z,8.57
2023-03-21T23:26:12.326Z,10.70
2023-03-21T23:28:40.103Z,8.38
2023-03-21T23:31:09.390Z,9.82
2023-03-21T23:33:37.333Z,7.80
2023-03-21T23:36:06.167Z,7.53
2023-03-21T23:38:34.617Z,8.73
2023-03-21T23:41:07.657Z,10.25
2023-03-21T23:43:35.793Z,8.13
2023-03-21T23:46:04.125Z,10.13
2023-03-21T23:48:32.187Z,9.02
2023-03-21T23:51:00.569Z,8.65
2023-03-21T23:53:28.631Z,9.68
2023-03-21T23:55:58.376Z,9.63
2023-03-21T23:58:29.616Z,10.60
